sensor_id;sensor_type;location;lat;lon;timestamp;P1;durP1;ratioP1;P2;durP2;ratioP2
48207;SDS011;33997;53.278;9.708;2022-12-18T00:01:59;28.75;;;13.73;;
48207;SDS011;33997;53.278;9.708;2022-12-18T00:04:25;22.42;;;12.23;;
48207;SDS011;33997;53.278;9.708;2022-12-18T00:06:51;23.65;;;12.23;;
48207;SDS011;33997;53.278;9.708;2022-12-18T00:09:17;26.05;;;11.95;;
48207;SDS011;33997;53.278;9.708;2022-12-18T00:11:43;29.08;;;13.85;;
48207;SDS011;33997;53.278;9.708;2022-12-18T00:14:10;25.50;;;12.57;;
48207;SDS011;33997;53.278;9.708;2022-12-18T00:16:37;23.20;;;12.23;;
48207;SDS011;33997;53.278;9.708;2022-12-18T00:19:02;27.10;;;12.82;;
48207;SDS011;33997;53.278;9.708;2022-12-18T00:21:29;26.02;;;13.00;;
48207;SDS011;33997;53.278;9.708;2022-12-18T00:23:56;24.05;;;12.75;;
48207;SDS011;33997;53.278;9.708;2022-12-18T00:26:22;22.52;;;13.35;;
48207;SDS011;33997;53.278;9.708;2022-12-18T00:28:49;23.58;;;12.50;;
48207;SDS011;33997;53.278;9.708;2022-12-18T00:31:18;21.88;;;12.55;;
48207;SDS011;33997;53.278;9.708;2022-12-18T00:33:44;25.45;;;12.18;;
48207;SDS011;33997;53.278;9.708;2022-12-18T00:36:15;29.02;;;12.45;;
48207;SDS011;33997;53.278;9.708;2022-12-18T00:38:42;23.23;;;11.98;;
48207;SDS011;33997;53.278;9.708;2022-12-18T00:41:09;23.95;;;11.68;;
48207;SDS011;33997;53.278;9.708;2022-12-18T00:43:35;25.60;;;12.70;;
48207;SDS011;33997;53.278;9.708;2022-12-18T00:46:03;19.38;;;11.35;;
48207;SDS011;33997;53.278;9.708;2022-12-18T00:48:29;23.60;;;12.10;;
48207;SDS011;33997;53.278;9.708;2022-12-18T00:50:54;25.92;;;12.85;;
48207;SDS011;33997;53.278;9.708;2022-12-18T00:53:20;23.88;;;12.80;;
48207;SDS011;33997;53.278;9.708;2022-12-18T00:55:45;24.67;;;13.45;;
48207;SDS011;33997;53.278;9.708;2022-12-18T00:58:12;18.13;;;11.45;;
48207;SDS011;33997;53.278;9.708;2022-12-18T01:00:38;23.88;;;11.73;;
48207;SDS011;33997;53.278;9.708;2022-12-18T01:03:04;22.60;;;11.80;;
48207;SDS011;33997;53.278;9.708;2022-12-18T01:05:30;24.33;;;12.07;;
48207;SDS011;33997;53.278;9.708;2022-12-18T01:07:56;23.42;;;11.02;;
48207;SDS011;33997;53.278;9.708;2022-12-18T01:10:22;21.65;;;11.70;;
48207;SDS011;33997;53.278;9.708;2022-12-18T01:12:48;25.13;;;11.75;;
48207;SDS011;33997;53.278;9.708;2022-12-18T01:15:14;22.88;;;12.02;;
48207;SDS011;33997;53.278;9.708;2022-12-18T01:17:41;25.98;;;11.70;;
48207;SDS011;33997;53.278;9.708;2022-12-18T01:20:07;23.25;;;11.45;;
48207;SDS011;33997;53.278;9.708;2022-12-18T01:22:33;23.80;;;11.00;;
48207;SDS011;33997;53.278;9.708;2022-12-18T01:24:59;25.92;;;12.70;;
48207;SDS011;33997;53.278;9.708;2022-12-18T01:27:24;23.55;;;11.48;;
48207;SDS011;33997;53.278;9.708;2022-12-18T01:29:50;20.30;;;11.20;;
48207;SDS011;33997;53.278;9.708;2022-12-18T01:32:16;23.17;;;11.23;;
48207;SDS011;33997;53.278;9.708;2022-12-18T01:34:41;21.13;;;10.85;;
48207;SDS011;33997;53.278;9.708;2022-12-18T01:37:07;23.02;;;12.38;;
48207;SDS011;33997;53.278;9.708;2022-12-18T01:39:32;25.35;;;12.63;;
48207;SDS011;33997;53.278;9.708;2022-12-18T01:41:58;25.33;;;12.45;;
48207;SDS011;33997;53.278;9.708;2022-12-18T01:47:21;20.65;;;11.25;;
48207;SDS011;33997;53.278;9.708;2022-12-18T01:49:50;17.15;;;9.15;;
48207;SDS011;33997;53.278;9.708;2022-12-18T01:52:17;21.15;;;10.65;;
48207;SDS011;33997;53.278;9.708;2022-12-18T01:54:45;25.40;;;11.48;;
48207;SDS011;33997;53.278;9.708;2022-12-18T01:57:11;26.17;;;10.40;;
48207;SDS011;33997;53.278;9.708;2022-12-18T01:59:36;20.05;;;10.13;;
48207;SDS011;33997;53.278;9.708;2022-12-18T02:02:04;19.88;;;10.35;;
48207;SDS011;33997;53.278;9.708;2022-12-18T02:04:31;18.48;;;10.23;;
48207;SDS011;33997;53.278;9.708;2022-12-18T02:09:46;23.90;;;9.55;;
48207;SDS011;33997;53.278;9.708;2022-12-18T02:12:23;17.25;;;9.35;;
48207;SDS011;33997;53.278;9.708;2022-12-18T02:18:18;21.48;;;10.40;;
48207;SDS011;33997;53.278;9.708;2022-12-18T02:20:48;24.08;;;9.75;;
48207;SDS011;33997;53.278;9.708;2022-12-18T02:28:55;16.40;;;8.85;;
48207;SDS011;33997;53.278;9.708;2022-12-18T02:31:26;22.45;;;10.00;;
48207;SDS011;33997;53.278;9.708;2022-12-18T02:33:55;18.65;;;8.48;;
48207;SDS011;33997;53.278;9.708;2022-12-18T02:36:23;18.58;;;9.63;;
48207;SDS011;33997;53.278;9.708;2022-12-18T02:38:51;17.25;;;9.57;;
48207;SDS011;33997;53.278;9.708;2022-12-18T02:41:18;20.90;;;9.95;;
48207;SDS011;33997;53.278;9.708;2022-12-18T02:43:47;17.40;;;8.75;;
48207;SDS011;33997;53.278;9.708;2022-12-18T02:46:24;18.23;;;9.02;;
48207;SDS011;33997;53.278;9.708;2022-12-18T02:49:06;16.95;;;9.45;;
48207;SDS011;33997;53.278;9.708;2022-12-18T02:51:56;20.17;;;9.20;;
48207;SDS011;33997;53.278;9.708;2022-12-18T02:54:57;20.20;;;9.43;;
48207;SDS011;33997;53.278;9.708;2022-12-18T02:57:51;17.65;;;9.43;;
48207;SDS011;33997;53.278;9.708;2022-12-18T03:00:22;17.40;;;8.75;;
48207;SDS011;33997;53.278;9.708;2022-12-18T03:02:58;16.05;;;9.05;;
48207;SDS011;33997;53.278;9.708;2022-12-18T03:05:36;17.95;;;8.70;;
48207;SDS011;33997;53.278;9.708;2022-12-18T03:08:06;15.60;;;8.80;;
48207;SDS011;33997;53.278;9.708;2022-12-18T03:10:42;17.13;;;9.60;;
48207;SDS011;33997;53.278;9.708;2022-12-18T03:13:12;16.27;;;8.40;;
48207;SDS011;33997;53.278;9.708;2022-12-18T03:15:42;17.23;;;9.48;;
48207;SDS011;33997;53.278;9.708;2022-12-18T03:18:30;16.25;;;8.13;;
48207;SDS011;33997;53.278;9.708;2022-12-18T03:21:09;18.70;;;8.65;;
48207;SDS011;33997;53.278;9.708;2022-12-18T03:23:39;18.38;;;9.00;;
48207;SDS011;33997;53.278;9.708;2022-12-18T03:28:36;17.42;;;7.75;;
48207;SDS011;33997;53.278;9.708;2022-12-18T03:31:07;17.15;;;7.97;;
48207;SDS011;33997;53.278;9.708;2022-12-18T03:33:38;14.13;;;7.00;;
48207;SDS011;33997;53.278;9.708;2022-12-18T03:36:05;15.18;;;8.43;;
48207;SDS011;33997;53.278;9.708;2022-12-18T03:38:31;18.98;;;8.45;;
48207;SDS011;33997;53.278;9.708;2022-12-18T03:41:06;17.85;;;8.48;;
48207;SDS011;33997;53.278;9.708;2022-12-18T03:43:49;18.30;;;8.43;;
48207;SDS011;33997;53.278;9.708;2022-12-18T03:46:28;20.10;;;7.90;;
48207;SDS011;33997;53.278;9.708;2022-12-18T03:49:02;18.75;;;8.88;;
48207;SDS011;33997;53.278;9.708;2022-12-18T03:51:39;16.08;;;8.15;;
48207;SDS011;33997;53.278;9.708;2022-12-18T03:54:12;19.55;;;9.40;;
48207;SDS011;33997;53.278;9.708;2022-12-18T03:56:40;20.48;;;9.40;;
48207;SDS011;33997;53.278;9.708;2022-12-18T03:59:22;17.40;;;9.68;;
48207;SDS011;33997;53.278;9.708;2022-12-18T04:01:51;15.35;;;8.70;;
48207;SDS011;33997;53.278;9.708;2022-12-18T04:04:18;18.02;;;9.40;;
48207;SDS011;33997;53.278;9.708;2022-12-18T04:06:45;20.27;;;9.43;;
48207;SDS011;33997;53.278;9.708;2022-12-18T04:09:13;19.67;;;9.43;;
48207;SDS011;33997;53.278;9.708;2022-12-18T04:11:42;18.42;;;9.25;;
48207;SDS011;33997;53.278;9.708;2022-12-18T04:14:10;23.95;;;10.27;;
48207;SDS011;33997;53.278;9.708;2022-12-18T04:16:36;18.60;;;10.02;;
48207;SDS011;33997;53.278;9.708;2022-12-18T04:19:02;20.73;;;10.52;;
48207;SDS011;33997;53.278;9.708;2022-12-18T04:21:28;19.25;;;9.13;;
48207;SDS011;33997;53.278;9.708;2022-12-18T04:23:53;22.90;;;9.60;;
48207;SDS011;33997;53.278;9.708;2022-12-18T04:26:19;20.00;;;9.27;;
48207;SDS011;33997;53.278;9.708;2022-12-18T04:28:45;19.38;;;9.15;;
48207;SDS011;33997;53.278;9.708;2022-12-18T04:31:10;19.17;;;9.05;;
48207;SDS011;33997;53.278;9.708;2022-12-18T04:33:36;16.23;;;9.23;;
48207;SDS011;33997;53.278;9.708;2022-12-18T04:36:01;19.98;;;9.35;;
48207;SDS011;33997;53.278;9.708;2022-12-18T04:38:27;22.20;;;9.25;;
48207;SDS011;33997;53.278;9.708;2022-12-18T04:40:52;21.13;;;8.60;;
48207;SDS011;33997;53.278;9.708;2022-12-18T04:43:18;21.13;;;9.73;;
48207;SDS011;33997;53.278;9.708;2022-12-18T04:45:43;17.55;;;9.05;;
48207;SDS011;33997;53.278;9.708;2022-12-18T04:48:09;19.92;;;10.20;;
48207;SDS011;33997;53.278;9.708;2022-12-18T04:50:34;17.27;;;8.82;;
48207;SDS011;33997;53.278;9.708;2022-12-18T04:53:00;17.38;;;9.18;;
48207;SDS011;33997;53.278;9.708;2022-12-18T04:55:25;18.65;;;9.07;;
48207;SDS011;33997;53.278;9.708;2022-12-18T04:57:52;18.25;;;8.93;;
48207;SDS011;33997;53.278;9.708;2022-12-18T05:00:18;16.70;;;8.93;;
48207;SDS011;33997;53.278;9.708;2022-12-18T05:02:43;19.90;;;9.07;;
48207;SDS011;33997;53.278;9.708;2022-12-18T05:05:09;18.20;;;9.00;;
48207;SDS011;33997;53.278;9.708;2022-12-18T05:07:35;17.23;;;9.20;;
48207;SDS011;33997;53.278;9.708;2022-12-18T05:10:01;19.92;;;8.85;;
48207;SDS011;33997;53.278;9.708;2022-12-18T05:12:26;16.60;;;9.20;;
48207;SDS011;33997;53.278;9.708;2022-12-18T05:14:52;20.65;;;8.82;;
48207;SDS011;33997;53.278;9.708;2022-12-18T05:17:17;21.55;;;9.85;;
48207;SDS011;33997;53.278;9.708;2022-12-18T05:19:43;17.20;;;9.00;;
48207;SDS011;33997;53.278;9.708;2022-12-18T05:22:08;17.20;;;8.38;;
48207;SDS011;33997;53.278;9.708;2022-12-18T05:24:34;16.35;;;8.55;;
48207;SDS011;33997;53.278;9.708;2022-12-18T05:27:00;18.08;;;8.85;;
48207;SDS011;33997;53.278;9.708;2022-12-18T05:29:25;16.67;;;9.02;;
48207;SDS011;33997;53.278;9.708;2022-12-18T05:31:51;21.52;;;8.18;;
48207;SDS011;33997;53.278;9.708;2022-12-18T05:34:16;15.18;;;8.32;;
48207;SDS011;33997;53.278;9.708;2022-12-18T05:36:42;18.83;;;9.35;;
48207;SDS011;33997;53.278;9.708;2022-12-18T05:39:07;20.60;;;9.48;;
48207;SDS011;33997;53.278;9.708;2022-12-18T05:41:33;19.75;;;9.13;;
48207;SDS011;33997;53.278;9.708;2022-12-18T05:43:59;17.63;;;8.60;;
48207;SDS011;33997;53.278;9.708;2022-12-18T05:46:25;18.42;;;8.82;;
48207;SDS011;33997;53.278;9.708;2022-12-18T05:48:51;17.08;;;8.40;;
48207;SDS011;33997;53.278;9.708;2022-12-18T05:51:17;15.48;;;7.60;;
48207;SDS011;33997;53.278;9.708;2022-12-18T05:53:44;15.18;;;8.15;;
48207;SDS011;33997;53.278;9.708;2022-12-18T05:56:11;15.00;;;8.38;;
48207;SDS011;33997;53.278;9.708;2022-12-18T05:58:44;18.17;;;8.15;;
48207;SDS011;33997;53.278;9.708;2022-12-18T06:01:11;15.00;;;8.20;;
48207;SDS011;33997;53.278;9.708;2022-12-18T06:03:45;16.13;;;8.27;;
48207;SDS011;33997;53.278;9.708;2022-12-18T06:06:14;17.00;;;7.93;;
48207;SDS011;33997;53.278;9.708;2022-12-18T06:08:42;15.52;;;7.68;;
48207;SDS011;33997;53.278;9.708;2022-12-18T06:11:08;15.07;;;7.78;;
48207;SDS011;33997;53.278;9.708;2022-12-18T06:13:33;14.52;;;8.13;;
48207;SDS011;33997;53.278;9.708;2022-12-18T06:16:01;18.13;;;7.95;;
48207;SDS011;33997;53.278;9.708;2022-12-18T06:18:28;15.95;;;8.43;;
48207;SDS011;33997;53.278;9.708;2022-12-18T06:20:54;18.73;;;8.18;;
48207;SDS011;33997;53.278;9.708;2022-12-18T06:23:23;17.58;;;7.68;;
48207;SDS011;33997;53.278;9.708;2022-12-18T06:25:49;14.82;;;8.18;;
48207;SDS011;33997;53.278;9.708;2022-12-18T06:28:15;17.48;;;8.02;;
48207;SDS011;33997;53.278;9.708;2022-12-18T06:30:43;16.60;;;8.57;;
48207;SDS011;33997;53.278;9.708;2022-12-18T06:33:09;14.88;;;8.18;;
48207;SDS011;33997;53.278;9.708;2022-12-18T06:35:34;17.05;;;8.48;;
48207;SDS011;33997;53.278;9.708;2022-12-18T06:38:00;19.83;;;8.40;;
48207;SDS011;33997;53.278;9.708;2022-12-18T06:40:26;14.75;;;8.23;;
48207;SDS011;33997;53.278;9.708;2022-12-18T06:42:52;14.43;;;7.72;;
48207;SDS011;33997;53.278;9.708;2022-12-18T06:45:17;16.02;;;8.27;;
48207;SDS011;33997;53.278;9.708;2022-12-18T06:47:43;18.88;;;8.25;;
48207;SDS011;33997;53.278;9.708;2022-12-18T06:50:08;16.58;;;8.48;;
48207;SDS011;33997;53.278;9.708;2022-12-18T06:52:34;13.75;;;7.85;;
48207;SDS011;33997;53.278;9.708;2022-12-18T06:54:59;22.42;;;8.70;;
48207;SDS011;33997;53.278;9.708;2022-12-18T06:57:25;15.13;;;8.43;;
48207;SDS011;33997;53.278;9.708;2022-12-18T06:59:51;15.35;;;7.80;;
48207;SDS011;33997;53.278;9.708;2022-12-18T07:02:16;20.00;;;8.70;;
48207;SDS011;33997;53.278;9.708;2022-12-18T07:04:42;13.75;;;7.82;;
48207;SDS011;33997;53.278;9.708;2022-12-18T07:07:07;14.60;;;7.85;;
48207;SDS011;33997;53.278;9.708;2022-12-18T07:09:33;17.23;;;8.68;;
48207;SDS011;33997;53.278;9.708;2022-12-18T07:11:58;16.02;;;8.38;;
48207;SDS011;33997;53.278;9.708;2022-12-18T07:14:24;17.20;;;7.72;;
48207;SDS011;33997;53.278;9.708;2022-12-18T07:16:49;14.32;;;7.95;;
48207;SDS011;33997;53.278;9.708;2022-12-18T07:19:15;16.05;;;8.40;;
48207;SDS011;33997;53.278;9.708;2022-12-18T07:21:40;18.58;;;8.82;;
48207;SDS011;33997;53.278;9.708;2022-12-18T07:24:06;16.60;;;7.95;;
48207;SDS011;33997;53.278;9.708;2022-12-18T07:26:32;17.98;;;8.63;;
48207;SDS011;33997;53.278;9.708;2022-12-18T07:28:58;16.17;;;8.30;;
48207;SDS011;33997;53.278;9.708;2022-12-18T07:31:23;15.77;;;8.38;;
48207;SDS011;33997;53.278;9.708;2022-12-18T07:33:50;16.42;;;8.63;;
48207;SDS011;33997;53.278;9.708;2022-12-18T07:36:16;17.45;;;9.38;;
48207;SDS011;33997;53.278;9.708;2022-12-18T07:38:42;14.50;;;8.60;;
48207;SDS011;33997;53.278;9.708;2022-12-18T07:41:09;15.13;;;8.05;;
48207;SDS011;33997;53.278;9.708;2022-12-18T07:43:36;19.27;;;8.52;;
48207;SDS011;33997;53.278;9.708;2022-12-18T07:46:02;18.23;;;8.73;;
48207;SDS011;33997;53.278;9.708;2022-12-18T07:48:28;15.77;;;8.52;;
48207;SDS011;33997;53.278;9.708;2022-12-18T07:50:58;20.90;;;9.52;;
48207;SDS011;33997;53.278;9.708;2022-12-18T07:53:24;15.82;;;8.70;;
48207;SDS011;33997;53.278;9.708;2022-12-18T07:55:54;14.57;;;8.85;;
48207;SDS011;33997;53.278;9.708;2022-12-18T07:58:20;19.63;;;9.27;;
48207;SDS011;33997;53.278;9.708;2022-12-18T08:00:46;17.13;;;8.73;;
48207;SDS011;33997;53.278;9.708;2022-12-18T08:03:11;19.88;;;9.10;;
48207;SDS011;33997;53.278;9.708;2022-12-18T08:05:37;16.52;;;9.15;;
48207;SDS011;33997;53.278;9.708;2022-12-18T08:08:02;24.95;;;10.02;;
48207;SDS011;33997;53.278;9.708;2022-12-18T08:10:28;17.17;;;9.93;;
48207;SDS011;33997;53.278;9.708;2022-12-18T08:12:53;16.08;;;8.35;;
48207;SDS011;33997;53.278;9.708;2022-12-18T08:15:19;18.60;;;8.80;;
48207;SDS011;33997;53.278;9.708;2022-12-18T08:17:44;20.00;;;8.93;;
48207;SDS011;33997;53.278;9.708;2022-12-18T08:20:10;18.92;;;10.35;;
48207;SDS011;33997;53.278;9.708;2022-12-18T08:22:35;17.48;;;9.02;;
48207;SDS011;33997;53.278;9.708;2022-12-18T08:25:01;15.57;;;9.18;;
48207;SDS011;33997;53.278;9.708;2022-12-18T08:27:28;22.63;;;10.30;;
48207;SDS011;33997;53.278;9.708;2022-12-18T08:29:54;20.23;;;9.93;;
48207;SDS011;33997;53.278;9.708;2022-12-18T08:32:20;24.13;;;9.43;;
48207;SDS011;33997;53.278;9.708;2022-12-18T08:34:45;17.02;;;8.30;;
48207;SDS011;33997;53.278;9.708;2022-12-18T08:37:11;19.08;;;9.68;;
48207;SDS011;33997;53.278;9.708;2022-12-18T08:39:36;25.35;;;9.30;;
48207;SDS011;33997;53.278;9.708;2022-12-18T08:42:02;19.98;;;9.57;;
48207;SDS011;33997;53.278;9.708;2022-12-18T08:44:45;17.58;;;9.18;;
48207;SDS011;33997;53.278;9.708;2022-12-18T08:47:11;16.83;;;7.53;;
48207;SDS011;33997;53.278;9.708;2022-12-18T08:49:36;14.40;;;8.25;;
48207;SDS011;33997;53.278;9.708;2022-12-18T08:52:02;16.98;;;8.63;;
48207;SDS011;33997;53.278;9.708;2022-12-18T08:54:28;18.95;;;9.35;;
48207;SDS011;33997;53.278;9.708;2022-12-18T08:56:53;18.38;;;8.13;;
48207;SDS011;33997;53.278;9.708;2022-12-18T08:59:19;18.73;;;9.13;;
48207;SDS011;33997;53.278;9.708;2022-12-18T09:01:44;16.58;;;8.80;;
48207;SDS011;33997;53.278;9.708;2022-12-18T09:04:11;13.63;;;8.10;;
48207;SDS011;33997;53.278;9.708;2022-12-18T09:06:37;15.82;;;8.27;;
48207;SDS011;33997;53.278;9.708;2022-12-18T09:09:02;17.52;;;8.15;;
48207;SDS011;33997;53.278;9.708;2022-12-18T09:11:29;21.00;;;7.88;;
48207;SDS011;33997;53.278;9.708;2022-12-18T09:13:55;15.85;;;8.07;;
48207;SDS011;33997;53.278;9.708;2022-12-18T09:16:22;15.07;;;8.00;;
48207;SDS011;33997;53.278;9.708;2022-12-18T09:18:49;15.27;;;8.20;;
48207;SDS011;33997;53.278;9.708;2022-12-18T09:21:16;17.45;;;8.30;;
48207;SDS011;33997;53.278;9.708;2022-12-18T09:23:49;14.75;;;7.10;;
48207;SDS011;33997;53.278;9.708;2022-12-18T09:26:15;14.25;;;7.45;;
48207;SDS011;33997;53.278;9.708;2022-12-18T09:28:41;15.20;;;7.30;;
48207;SDS011;33997;53.278;9.708;2022-12-18T09:31:08;14.27;;;7.32;;
48207;SDS011;33997;53.278;9.708;2022-12-18T09:33:34;17.40;;;7.35;;
48207;SDS011;33997;53.278;9.708;2022-12-18T09:36:02;15.18;;;7.57;;
48207;SDS011;33997;53.278;9.708;2022-12-18T09:38:30;16.20;;;7.13;;
48207;SDS011;33997;53.278;9.708;2022-12-18T09:43:50;14.45;;;7.15;;
48207;SDS011;33997;53.278;9.708;2022-12-18T09:46:19;11.55;;;6.70;;
48207;SDS011;33997;53.278;9.708;2022-12-18T09:48:53;12.63;;;6.70;;
48207;SDS011;33997;53.278;9.708;2022-12-18T09:52:05;13.82;;;6.75;;
48207;SDS011;33997;53.278;9.708;2022-12-18T09:54:15;13.63;;;6.90;;
48207;SDS011;33997;53.278;9.708;2022-12-18T09:56:45;14.98;;;6.70;;
48207;SDS011;33997;53.278;9.708;2022-12-18T09:59:15;12.60;;;6.13;;
48207;SDS011;33997;53.278;9.708;2022-12-18T10:01:46;11.95;;;6.32;;
48207;SDS011;33997;53.278;9.708;2022-12-18T10:04:11;13.57;;;6.88;;
48207;SDS011;33997;53.278;9.708;2022-12-18T10:06:43;17.55;;;6.90;;
48207;SDS011;33997;53.278;9.708;2022-12-18T10:09:33;13.52;;;7.07;;
48207;SDS011;33997;53.278;9.708;2022-12-18T10:12:21;10.27;;;5.70;;
48207;SDS011;33997;53.278;9.708;2022-12-18T10:15:10;12.75;;;5.40;;
48207;SDS011;33997;53.278;9.708;2022-12-18T10:18:07;10.82;;;5.38;;
48207;SDS011;33997;53.278;9.708;2022-12-18T10:21:06;11.73;;;5.95;;
48207;SDS011;33997;53.278;9.708;2022-12-18T10:23:44;13.82;;;6.05;;
48207;SDS011;33997;53.278;9.708;2022-12-18T10:26:19;12.95;;;6.35;;
48207;SDS011;33997;53.278;9.708;2022-12-18T10:28:45;11.90;;;5.75;;
48207;SDS011;33997;53.278;9.708;2022-12-18T10:31:15;13.90;;;5.68;;
48207;SDS011;33997;53.278;9.708;2022-12-18T10:33:43;12.75;;;5.57;;
48207;SDS011;33997;53.278;9.708;2022-12-18T10:36:09;12.70;;;6.40;;
48207;SDS011;33997;53.278;9.708;2022-12-18T10:38:35;10.75;;;4.90;;
48207;SDS011;33997;53.278;9.708;2022-12-18T10:43:28;10.32;;;5.93;;
48207;SDS011;33997;53.278;9.708;2022-12-18T10:45:59;11.20;;;6.10;;
48207;SDS011;33997;53.278;9.708;2022-12-18T10:48:27;9.68;;;5.40;;
48207;SDS011;33997;53.278;9.708;2022-12-18T10:50:53;11.30;;;6.22;;
48207;SDS011;33997;53.278;9.708;2022-12-18T10:53:21;9.55;;;5.68;;
48207;SDS011;33997;53.278;9.708;2022-12-18T10:55:49;13.40;;;5.78;;
48207;SDS011;33997;53.278;9.708;2022-12-18T10:58:26;12.40;;;5.40;;
48207;SDS011;33997;53.278;9.708;2022-12-18T11:01:09;12.02;;;6.38;;
48207;SDS011;33997;53.278;9.708;2022-12-18T11:03:37;13.02;;;6.20;;
48207;SDS011;33997;53.278;9.708;2022-12-18T11:06:23;11.90;;;6.18;;
48207;SDS011;33997;53.278;9.708;2022-12-18T11:09:33;17.02;;;6.97;;
48207;SDS011;33997;53.278;9.708;2022-12-18T11:11:53;12.65;;;5.80;;
48207;SDS011;33997;53.278;9.708;2022-12-18T11:14:25;11.80;;;5.57;;
48207;SDS011;33997;53.278;9.708;2022-12-18T11:16:56;13.10;;;5.50;;
48207;SDS011;33997;53.278;9.708;2022-12-18T11:21:49;12.15;;;4.85;;
48207;SDS011;33997;53.278;9.708;2022-12-18T11:24:34;10.90;;;5.15;;
48207;SDS011;33997;53.278;9.708;2022-12-18T11:27:02;12.77;;;5.43;;
48207;SDS011;33997;53.278;9.708;2022-12-18T11:29:33;8.88;;;4.72;;
48207;SDS011;33997;53.278;9.708;2022-12-18T11:32:47;10.68;;;5.20;;
48207;SDS011;33997;53.278;9.708;2022-12-18T11:34:59;9.70;;;4.47;;
48207;SDS011;33997;53.278;9.708;2022-12-18T11:37:29;8.27;;;4.82;;
48207;SDS011;33997;53.278;9.708;2022-12-18T11:39:57;11.65;;;5.38;;
48207;SDS011;33997;53.278;9.708;2022-12-18T11:42:36;10.67;;;5.20;;
48207;SDS011;33997;53.278;9.708;2022-12-18T11:47:43;11.60;;;5.70;;
48207;SDS011;33997;53.278;9.708;2022-12-18T11:50:18;8.35;;;5.00;;
48207;SDS011;33997;53.278;9.708;2022-12-18T11:52:47;10.27;;;4.95;;
48207;SDS011;33997;53.278;9.708;2022-12-18T11:55:16;9.52;;;4.63;;
48207;SDS011;33997;53.278;9.708;2022-12-18T12:00:44;9.90;;;5.15;;
48207;SDS011;33997;53.278;9.708;2022-12-18T12:03:22;9.35;;;4.75;;
48207;SDS011;33997;53.278;9.708;2022-12-18T12:06:04;7.82;;;4.38;;
48207;SDS011;33997;53.278;9.708;2022-12-18T12:08:43;7.77;;;4.00;;
48207;SDS011;33997;53.278;9.708;2022-12-18T12:11:42;9.90;;;5.35;;
48207;SDS011;33997;53.278;9.708;2022-12-18T12:14:25;9.80;;;5.25;;
48207;SDS011;33997;53.278;9.708;2022-12-18T12:20:06;11.18;;;5.22;;
48207;SDS011;33997;53.278;9.708;2022-12-18T12:22:53;11.65;;;4.85;;
48207;SDS011;33997;53.278;9.708;2022-12-18T12:31:20;10.18;;;4.25;;
48207;SDS011;33997;53.278;9.708;2022-12-18T12:39:31;6.18;;;3.75;;
48207;SDS011;33997;53.278;9.708;2022-12-18T12:42:00;6.47;;;3.33;;
48207;SDS011;33997;53.278;9.708;2022-12-18T12:44:49;5.70;;;3.22;;
48207;SDS011;33997;53.278;9.708;2022-12-18T12:47:28;6.65;;;3.05;;
48207;SDS011;33997;53.278;9.708;2022-12-18T12:49:58;8.63;;;3.42;;
48207;SDS011;33997;53.278;9.708;2022-12-18T12:52:28;8.60;;;2.92;;
48207;SDS011;33997;53.278;9.708;2022-12-18T12:54:58;5.72;;;3.13;;
48207;SDS011;33997;53.278;9.708;2022-12-18T12:57:29;7.70;;;3.28;;
48207;SDS011;33997;53.278;9.708;2022-12-18T13:02:47;5.45;;;2.60;;
48207;SDS011;33997;53.278;9.708;2022-12-18T13:08:23;6.43;;;2.97;;
48207;SDS011;33997;53.278;9.708;2022-12-18T13:10:51;7.72;;;2.63;;
48207;SDS011;33997;53.278;9.708;2022-12-18T13:13:51;9.48;;;3.15;;
48207;SDS011;33997;53.278;9.708;2022-12-18T13:16:22;6.93;;;3.03;;
48207;SDS011;33997;53.278;9.708;2022-12-18T13:18:50;8.20;;;3.63;;
48207;SDS011;33997;53.278;9.708;2022-12-18T13:21:20;5.50;;;2.50;;
48207;SDS011;33997;53.278;9.708;2022-12-18T13:23:49;9.90;;;3.28;;
48207;SDS011;33997;53.278;9.708;2022-12-18T13:36:51;6.70;;;3.28;;
48207;SDS011;33997;53.278;9.708;2022-12-18T13:41:53;8.73;;;3.70;;
48207;SDS011;33997;53.278;9.708;2022-12-18T13:44:59;7.50;;;3.60;;
48207;SDS011;33997;53.278;9.708;2022-12-18T13:47:31;8.50;;;4.10;;
48207;SDS011;33997;53.278;9.708;2022-12-18T13:49:58;10.40;;;4.80;;
48207;SDS011;33997;53.278;9.708;2022-12-18T13:52:25;7.88;;;3.90;;
48207;SDS011;33997;53.278;9.708;2022-12-18T13:55:00;10.93;;;4.35;;
48207;SDS011;33997;53.278;9.708;2022-12-18T13:57:33;9.40;;;4.25;;
48207;SDS011;33997;53.278;9.708;2022-12-18T14:02:49;9.80;;;4.13;;
48207;SDS011;33997;53.278;9.708;2022-12-18T14:05:48;12.02;;;4.25;;
48207;SDS011;33997;53.278;9.708;2022-12-18T14:08:10;9.20;;;3.53;;
48207;SDS011;33997;53.278;9.708;2022-12-18T14:10:42;10.80;;;4.33;;
48207;SDS011;33997;53.278;9.708;2022-12-18T14:13:10;8.85;;;4.70;;
48207;SDS011;33997;53.278;9.708;2022-12-18T14:15:43;8.75;;;4.75;;
48207;SDS011;33997;53.278;9.708;2022-12-18T14:18:19;8.18;;;4.40;;
48207;SDS011;33997;53.278;9.708;2022-12-18T14:20:48;9.15;;;5.03;;
48207;SDS011;33997;53.278;9.708;2022-12-18T14:23:29;9.35;;;4.15;;
48207;SDS011;33997;53.278;9.708;2022-12-18T14:28:52;9.45;;;4.60;;
48207;SDS011;33997;53.278;9.708;2022-12-18T14:31:19;13.35;;;4.70;;
48207;SDS011;33997;53.278;9.708;2022-12-18T14:33:49;9.80;;;4.80;;
48207;SDS011;33997;53.278;9.708;2022-12-18T14:36:16;9.88;;;4.38;;
48207;SDS011;33997;53.278;9.708;2022-12-18T14:38:47;11.02;;;4.82;;
48207;SDS011;33997;53.278;9.708;2022-12-18T14:41:16;11.38;;;5.70;;
48207;SDS011;33997;53.278;9.708;2022-12-18T14:43:43;11.60;;;5.32;;
48207;SDS011;33997;53.278;9.708;2022-12-18T14:46:29;14.10;;;5.93;;
48207;SDS011;33997;53.278;9.708;2022-12-18T14:49:04;12.07;;;5.57;;
48207;SDS011;33997;53.278;9.708;2022-12-18T14:51:48;10.15;;;4.97;;
48207;SDS011;33997;53.278;9.708;2022-12-18T14:54:17;12.50;;;6.13;;
48207;SDS011;33997;53.278;9.708;2022-12-18T14:56:44;10.75;;;5.28;;
48207;SDS011;33997;53.278;9.708;2022-12-18T14:59:13;16.05;;;6.38;;
48207;SDS011;33997;53.278;9.708;2022-12-18T15:04:45;14.32;;;5.85;;
48207;SDS011;33997;53.278;9.708;2022-12-18T15:07:18;13.90;;;6.47;;
48207;SDS011;33997;53.278;9.708;2022-12-18T15:12:48;10.48;;;6.25;;
48207;SDS011;33997;53.278;9.708;2022-12-18T15:17:59;14.02;;;6.90;;
48207;SDS011;33997;53.278;9.708;2022-12-18T15:20:25;15.07;;;6.82;;
48207;SDS011;33997;53.278;9.708;2022-12-18T15:22:51;14.20;;;7.35;;
48207;SDS011;33997;53.278;9.708;2022-12-18T15:25:28;14.98;;;8.15;;
48207;SDS011;33997;53.278;9.708;2022-12-18T15:27:58;18.95;;;8.10;;
48207;SDS011;33997;53.278;9.708;2022-12-18T15:30:24;17.60;;;8.05;;
48207;SDS011;33997;53.278;9.708;2022-12-18T15:32:50;19.63;;;8.18;;
48207;SDS011;33997;53.278;9.708;2022-12-18T15:37:44;20.35;;;9.57;;
48207;SDS011;33997;53.278;9.708;2022-12-18T15:40:15;24.98;;;11.05;;
48207;SDS011;33997;53.278;9.708;2022-12-18T15:42:51;21.25;;;9.85;;
48207;SDS011;33997;53.278;9.708;2022-12-18T15:45:37;24.10;;;9.93;;
48207;SDS011;33997;53.278;9.708;2022-12-18T15:48:15;19.65;;;9.68;;
48207;SDS011;33997;53.278;9.708;2022-12-18T15:50:45;18.17;;;9.13;;
48207;SDS011;33997;53.278;9.708;2022-12-18T15:53:11;18.05;;;10.00;;
48207;SDS011;33997;53.278;9.708;2022-12-18T15:55:36;23.27;;;10.70;;
48207;SDS011;33997;53.278;9.708;2022-12-18T15:58:21;21.33;;;11.13;;
48207;SDS011;33997;53.278;9.708;2022-12-18T16:00:46;24.08;;;11.07;;
48207;SDS011;33997;53.278;9.708;2022-12-18T16:03:12;23.75;;;10.70;;
48207;SDS011;33997;53.278;9.708;2022-12-18T16:05:37;20.92;;;10.88;;
48207;SDS011;33997;53.278;9.708;2022-12-18T16:08:03;22.83;;;11.35;;
48207;SDS011;33997;53.278;9.708;2022-12-18T16:10:28;22.50;;;10.93;;